King County International Airport

Airport
ICAO code: 
KBFI
Summary
ICAO Region: 
NAM
Territory: 
Location: 
Seattle, Washington,
Coordinates: 
Aerial View: 
47° 32' 12.026" N, 122° 18' 14.36" W
Airport LOS: 
Parallel Runway Operation
Metar
Observation
KBFI 020853Z 00000KT 10SM SCT012 OVC016 12/10 A3016 RMK AO2 SLP213 T01220100 52004
Station
Seattle, Seattle Boeing Field
Date/Time
2021-12-02 08:53:00
Wind direction
Wind speed
00 kts
Lowest cloud amount
scattered clouds
Temperature
12.2°C
Dew point
10°C
Humidity
86%
Weather condition
n/a

Description

Boeing Field, officially King County International Airport, is a public airport located 8 km south of the central business district of Seattle, Washington.

Climatology

Dry-summer subtropical ”Mediterranean" climate (Köppen climate classification Csb) - characterized by warm, dry summers and mild winters.

Runways

Designator Length Width Surface Rops
13L/31R 1131 30 ASP Yes/Yes
13R/31L 3048 61 ASP Yes/Yes
Airport map: 
Aerial View: 

SKYbrary Partners:

Safety knowledge contributed by: